sensor_id;sensor_type;location;lat;lon;timestamp;P1;durP1;ratioP1;P2;durP2;ratioP2
39016;SDS011;24784;45.582;5.276;2024-01-25T00:00:20;16.20;;;8.07;;
39016;SDS011;24784;45.582;5.276;2024-01-25T00:02:46;23.15;;;9.10;;
39016;SDS011;24784;45.582;5.276;2024-01-25T00:05:11;13.32;;;7.45;;
39016;SDS011;24784;45.582;5.276;2024-01-25T00:07:45;15.63;;;8.75;;
39016;SDS011;24784;45.582;5.276;2024-01-25T00:10:16;14.88;;;8.02;;
39016;SDS011;24784;45.582;5.276;2024-01-25T00:12:42;14.00;;;8.07;;
39016;SDS011;24784;45.582;5.276;2024-01-25T00:15:08;16.63;;;8.35;;
39016;SDS011;24784;45.582;5.276;2024-01-25T00:17:35;15.50;;;9.43;;
39016;SDS011;24784;45.582;5.276;2024-01-25T00:20:02;18.75;;;9.45;;
39016;SDS011;24784;45.582;5.276;2024-01-25T00:22:28;16.63;;;9.05;;
39016;SDS011;24784;45.582;5.276;2024-01-25T00:24:54;16.17;;;9.48;;
39016;SDS011;24784;45.582;5.276;2024-01-25T00:27:19;14.77;;;7.97;;
39016;SDS011;24784;45.582;5.276;2024-01-25T00:29:45;15.20;;;8.35;;
39016;SDS011;24784;45.582;5.276;2024-01-25T00:32:10;15.38;;;8.27;;
39016;SDS011;24784;45.582;5.276;2024-01-25T00:34:36;13.07;;;7.78;;
39016;SDS011;24784;45.582;5.276;2024-01-25T00:37:02;14.27;;;7.68;;
39016;SDS011;24784;45.582;5.276;2024-01-25T00:39:28;15.65;;;7.88;;
39016;SDS011;24784;45.582;5.276;2024-01-25T00:41:55;15.98;;;8.18;;
39016;SDS011;24784;45.582;5.276;2024-01-25T00:44:30;19.98;;;8.25;;
39016;SDS011;24784;45.582;5.276;2024-01-25T00:46:56;18.75;;;9.10;;
39016;SDS011;24784;45.582;5.276;2024-01-25T00:49:22;15.25;;;8.43;;
39016;SDS011;24784;45.582;5.276;2024-01-25T00:51:48;15.68;;;8.45;;
39016;SDS011;24784;45.582;5.276;2024-01-25T00:54:15;18.85;;;8.90;;
39016;SDS011;24784;45.582;5.276;2024-01-25T00:56:41;12.13;;;8.02;;
39016;SDS011;24784;45.582;5.276;2024-01-25T00:59:07;12.27;;;7.72;;
39016;SDS011;24784;45.582;5.276;2024-01-25T01:01:33;14.60;;;7.65;;
39016;SDS011;24784;45.582;5.276;2024-01-25T01:03:59;16.35;;;8.40;;
39016;SDS011;24784;45.582;5.276;2024-01-25T01:06:25;12.77;;;7.45;;
39016;SDS011;24784;45.582;5.276;2024-01-25T01:08:51;14.88;;;7.57;;
39016;SDS011;24784;45.582;5.276;2024-01-25T01:11:18;11.77;;;7.60;;
39016;SDS011;24784;45.582;5.276;2024-01-25T01:13:44;15.57;;;7.50;;
39016;SDS011;24784;45.582;5.276;2024-01-25T01:16:09;16.98;;;7.00;;
39016;SDS011;24784;45.582;5.276;2024-01-25T01:18:35;11.98;;;7.07;;
39016;SDS011;24784;45.582;5.276;2024-01-25T01:21:01;13.88;;;7.18;;
39016;SDS011;24784;45.582;5.276;2024-01-25T01:23:27;13.60;;;6.95;;
39016;SDS011;24784;45.582;5.276;2024-01-25T01:25:53;11.57;;;6.95;;
39016;SDS011;24784;45.582;5.276;2024-01-25T01:28:18;10.85;;;6.78;;
39016;SDS011;24784;45.582;5.276;2024-01-25T01:30:44;13.57;;;7.35;;
39016;SDS011;24784;45.582;5.276;2024-01-25T01:33:10;23.60;;;7.07;;
39016;SDS011;24784;45.582;5.276;2024-01-25T01:35:36;10.60;;;6.60;;
39016;SDS011;24784;45.582;5.276;2024-01-25T01:38:02;12.30;;;6.97;;
39016;SDS011;24784;45.582;5.276;2024-01-25T01:40:27;16.95;;;7.22;;
39016;SDS011;24784;45.582;5.276;2024-01-25T01:43:02;17.23;;;6.90;;
39016;SDS011;24784;45.582;5.276;2024-01-25T01:45:28;16.65;;;6.82;;
39016;SDS011;24784;45.582;5.276;2024-01-25T01:47:54;9.88;;;6.40;;
39016;SDS011;24784;45.582;5.276;2024-01-25T01:50:21;11.30;;;6.68;;
39016;SDS011;24784;45.582;5.276;2024-01-25T01:52:47;9.13;;;6.60;;
39016;SDS011;24784;45.582;5.276;2024-01-25T01:55:14;9.02;;;6.15;;
39016;SDS011;24784;45.582;5.276;2024-01-25T01:57:40;9.48;;;6.10;;
39016;SDS011;24784;45.582;5.276;2024-01-25T02:00:07;11.55;;;7.07;;
39016;SDS011;24784;45.582;5.276;2024-01-25T02:02:34;13.10;;;7.07;;
39016;SDS011;24784;45.582;5.276;2024-01-25T02:05:00;14.98;;;6.43;;
39016;SDS011;24784;45.582;5.276;2024-01-25T02:07:26;10.20;;;5.60;;
39016;SDS011;24784;45.582;5.276;2024-01-25T02:09:53;14.80;;;6.50;;
39016;SDS011;24784;45.582;5.276;2024-01-25T02:12:18;8.80;;;6.10;;
39016;SDS011;24784;45.582;5.276;2024-01-25T02:14:44;15.02;;;7.07;;
39016;SDS011;24784;45.582;5.276;2024-01-25T02:17:10;8.85;;;5.93;;
39016;SDS011;24784;45.582;5.276;2024-01-25T02:19:36;10.55;;;6.07;;
39016;SDS011;24784;45.582;5.276;2024-01-25T02:22:02;12.25;;;6.80;;
39016;SDS011;24784;45.582;5.276;2024-01-25T02:24:32;17.92;;;6.10;;
39016;SDS011;24784;45.582;5.276;2024-01-25T02:26:57;9.38;;;6.43;;
39016;SDS011;24784;45.582;5.276;2024-01-25T02:29:23;15.15;;;6.82;;
39016;SDS011;24784;45.582;5.276;2024-01-25T02:31:49;14.75;;;6.20;;
39016;SDS011;24784;45.582;5.276;2024-01-25T02:34:14;12.52;;;6.53;;
39016;SDS011;24784;45.582;5.276;2024-01-25T02:36:40;12.85;;;6.82;;
39016;SDS011;24784;45.582;5.276;2024-01-25T02:39:06;19.27;;;6.82;;
39016;SDS011;24784;45.582;5.276;2024-01-25T02:41:31;8.90;;;6.07;;
39016;SDS011;24784;45.582;5.276;2024-01-25T02:43:57;10.77;;;5.97;;
39016;SDS011;24784;45.582;5.276;2024-01-25T02:46:24;9.23;;;5.70;;
39016;SDS011;24784;45.582;5.276;2024-01-25T02:48:50;10.57;;;6.05;;
39016;SDS011;24784;45.582;5.276;2024-01-25T02:51:16;11.13;;;5.50;;
39016;SDS011;24784;45.582;5.276;2024-01-25T02:53:41;9.93;;;5.85;;
39016;SDS011;24784;45.582;5.276;2024-01-25T02:56:07;10.35;;;6.05;;
39016;SDS011;24784;45.582;5.276;2024-01-25T02:58:33;12.20;;;6.57;;
39016;SDS011;24784;45.582;5.276;2024-01-25T03:00:58;9.35;;;5.60;;
39016;SDS011;24784;45.582;5.276;2024-01-25T03:03:24;8.90;;;5.78;;
39016;SDS011;24784;45.582;5.276;2024-01-25T03:05:52;11.27;;;6.03;;
39016;SDS011;24784;45.582;5.276;2024-01-25T03:08:18;13.57;;;6.20;;
39016;SDS011;24784;45.582;5.276;2024-01-25T03:10:44;8.88;;;6.30;;
39016;SDS011;24784;45.582;5.276;2024-01-25T03:13:11;14.93;;;5.95;;
39016;SDS011;24784;45.582;5.276;2024-01-25T03:15:36;9.32;;;5.80;;
39016;SDS011;24784;45.582;5.276;2024-01-25T03:18:02;13.30;;;6.03;;
39016;SDS011;24784;45.582;5.276;2024-01-25T03:20:28;9.65;;;6.38;;
39016;SDS011;24784;45.582;5.276;2024-01-25T03:22:54;11.38;;;5.65;;
39016;SDS011;24784;45.582;5.276;2024-01-25T03:25:20;13.27;;;5.88;;
39016;SDS011;24784;45.582;5.276;2024-01-25T03:27:46;10.38;;;5.80;;
39016;SDS011;24784;45.582;5.276;2024-01-25T03:30:11;9.13;;;5.47;;
39016;SDS011;24784;45.582;5.276;2024-01-25T03:32:37;19.55;;;6.55;;
39016;SDS011;24784;45.582;5.276;2024-01-25T03:35:03;8.63;;;5.32;;
39016;SDS011;24784;45.582;5.276;2024-01-25T03:37:29;10.55;;;5.40;;
39016;SDS011;24784;45.582;5.276;2024-01-25T03:39:54;9.68;;;5.63;;
39016;SDS011;24784;45.582;5.276;2024-01-25T03:42:20;8.43;;;5.65;;
39016;SDS011;24784;45.582;5.276;2024-01-25T03:44:46;10.48;;;5.70;;
39016;SDS011;24784;45.582;5.276;2024-01-25T03:47:12;9.20;;;5.53;;
39016;SDS011;24784;45.582;5.276;2024-01-25T03:49:37;14.73;;;6.30;;
39016;SDS011;24784;45.582;5.276;2024-01-25T03:52:04;12.80;;;6.10;;
39016;SDS011;24784;45.582;5.276;2024-01-25T03:54:30;9.65;;;5.90;;
39016;SDS011;24784;45.582;5.276;2024-01-25T03:56:55;8.27;;;5.43;;
39016;SDS011;24784;45.582;5.276;2024-01-25T03:59:21;15.18;;;6.07;;
39016;SDS011;24784;45.582;5.276;2024-01-25T04:01:47;11.85;;;5.50;;
39016;SDS011;24784;45.582;5.276;2024-01-25T04:04:13;9.27;;;5.70;;
39016;SDS011;24784;45.582;5.276;2024-01-25T04:06:42;6.93;;;5.55;;
39016;SDS011;24784;45.582;5.276;2024-01-25T04:09:08;10.48;;;6.13;;
39016;SDS011;24784;45.582;5.276;2024-01-25T04:11:35;10.75;;;5.80;;
39016;SDS011;24784;45.582;5.276;2024-01-25T04:14:02;16.42;;;5.80;;
39016;SDS011;24784;45.582;5.276;2024-01-25T04:16:27;9.77;;;5.60;;
39016;SDS011;24784;45.582;5.276;2024-01-25T04:18:53;7.20;;;5.25;;
39016;SDS011;24784;45.582;5.276;2024-01-25T04:21:19;10.15;;;5.82;;
39016;SDS011;24784;45.582;5.276;2024-01-25T04:23:44;8.70;;;5.35;;
39016;SDS011;24784;45.582;5.276;2024-01-25T04:26:10;7.13;;;5.25;;
39016;SDS011;24784;45.582;5.276;2024-01-25T04:28:36;8.18;;;5.57;;
39016;SDS011;24784;45.582;5.276;2024-01-25T04:31:02;9.68;;;5.40;;
39016;SDS011;24784;45.582;5.276;2024-01-25T04:33:28;9.43;;;5.50;;
39016;SDS011;24784;45.582;5.276;2024-01-25T04:35:54;9.27;;;5.80;;
39016;SDS011;24784;45.582;5.276;2024-01-25T04:38:20;11.88;;;5.65;;
39016;SDS011;24784;45.582;5.276;2024-01-25T04:40:46;11.73;;;5.25;;
39016;SDS011;24784;45.582;5.276;2024-01-25T04:43:12;14.45;;;5.80;;
39016;SDS011;24784;45.582;5.276;2024-01-25T04:45:38;12.38;;;5.90;;
39016;SDS011;24784;45.582;5.276;2024-01-25T04:48:04;10.02;;;5.32;;
39016;SDS011;24784;45.582;5.276;2024-01-25T04:50:30;8.07;;;5.47;;
39016;SDS011;24784;45.582;5.276;2024-01-25T04:52:56;11.02;;;5.32;;
39016;SDS011;24784;45.582;5.276;2024-01-25T04:55:22;12.23;;;5.75;;
39016;SDS011;24784;45.582;5.276;2024-01-25T04:57:47;9.25;;;5.78;;
39016;SDS011;24784;45.582;5.276;2024-01-25T05:00:15;9.95;;;5.50;;
39016;SDS011;24784;45.582;5.276;2024-01-25T05:02:41;9.10;;;5.53;;
39016;SDS011;24784;45.582;5.276;2024-01-25T05:05:07;9.57;;;5.80;;
39016;SDS011;24784;45.582;5.276;2024-01-25T05:07:33;13.40;;;5.68;;
39016;SDS011;24784;45.582;5.276;2024-01-25T05:09:58;8.23;;;5.35;;
39016;SDS011;24784;45.582;5.276;2024-01-25T05:12:24;7.57;;;5.68;;
39016;SDS011;24784;45.582;5.276;2024-01-25T05:14:49;8.85;;;5.25;;
39016;SDS011;24784;45.582;5.276;2024-01-25T05:17:15;10.82;;;5.93;;
39016;SDS011;24784;45.582;5.276;2024-01-25T05:19:41;12.23;;;6.25;;
39016;SDS011;24784;45.582;5.276;2024-01-25T05:22:06;7.35;;;5.55;;
39016;SDS011;24784;45.582;5.276;2024-01-25T05:24:33;8.25;;;6.53;;
39016;SDS011;24784;45.582;5.276;2024-01-25T05:26:59;13.35;;;6.30;;
39016;SDS011;24784;45.582;5.276;2024-01-25T05:29:24;11.23;;;6.05;;
39016;SDS011;24784;45.582;5.276;2024-01-25T05:31:50;8.38;;;5.70;;
39016;SDS011;24784;45.582;5.276;2024-01-25T05:34:16;13.80;;;6.93;;
39016;SDS011;24784;45.582;5.276;2024-01-25T05:36:41;13.65;;;6.03;;
39016;SDS011;24784;45.582;5.276;2024-01-25T05:39:07;8.07;;;5.93;;
39016;SDS011;24784;45.582;5.276;2024-01-25T05:41:33;10.30;;;5.65;;
39016;SDS011;24784;45.582;5.276;2024-01-25T05:43:59;10.38;;;6.53;;
39016;SDS011;24784;45.582;5.276;2024-01-25T05:46:25;9.45;;;5.50;;
39016;SDS011;24784;45.582;5.276;2024-01-25T05:48:51;10.98;;;6.05;;
39016;SDS011;24784;45.582;5.276;2024-01-25T05:51:16;12.30;;;5.57;;
39016;SDS011;24784;45.582;5.276;2024-01-25T05:53:42;11.43;;;5.97;;
39016;SDS011;24784;45.582;5.276;2024-01-25T05:56:08;10.55;;;6.03;;
39016;SDS011;24784;45.582;5.276;2024-01-25T05:58:34;9.32;;;6.03;;
39016;SDS011;24784;45.582;5.276;2024-01-25T06:00:59;12.40;;;6.15;;
39016;SDS011;24784;45.582;5.276;2024-01-25T06:03:25;18.25;;;7.45;;
39016;SDS011;24784;45.582;5.276;2024-01-25T06:05:51;11.45;;;5.63;;
39016;SDS011;24784;45.582;5.276;2024-01-25T06:08:16;10.85;;;5.63;;
39016;SDS011;24784;45.582;5.276;2024-01-25T06:10:42;12.68;;;5.97;;
39016;SDS011;24784;45.582;5.276;2024-01-25T06:13:08;14.75;;;7.10;;
39016;SDS011;24784;45.582;5.276;2024-01-25T06:15:34;12.35;;;6.80;;
39016;SDS011;24784;45.582;5.276;2024-01-25T06:18:00;14.23;;;7.38;;
39016;SDS011;24784;45.582;5.276;2024-01-25T06:20:25;13.07;;;8.07;;
39016;SDS011;24784;45.582;5.276;2024-01-25T06:22:51;13.32;;;8.45;;
39016;SDS011;24784;45.582;5.276;2024-01-25T06:25:17;16.88;;;9.43;;
39016;SDS011;24784;45.582;5.276;2024-01-25T06:27:42;17.08;;;9.43;;
39016;SDS011;24784;45.582;5.276;2024-01-25T06:30:08;21.63;;;10.55;;
39016;SDS011;24784;45.582;5.276;2024-01-25T06:32:34;18.25;;;10.13;;
39016;SDS011;24784;45.582;5.276;2024-01-25T06:35:00;22.60;;;12.32;;
39016;SDS011;24784;45.582;5.276;2024-01-25T06:37:26;22.20;;;11.85;;
39016;SDS011;24784;45.582;5.276;2024-01-25T06:39:51;20.98;;;11.77;;
39016;SDS011;24784;45.582;5.276;2024-01-25T06:42:17;15.68;;;11.43;;
39016;SDS011;24784;45.582;5.276;2024-01-25T06:44:43;19.20;;;11.27;;
39016;SDS011;24784;45.582;5.276;2024-01-25T06:47:09;18.88;;;11.45;;
39016;SDS011;24784;45.582;5.276;2024-01-25T06:49:35;16.50;;;9.80;;
39016;SDS011;24784;45.582;5.276;2024-01-25T06:52:01;15.55;;;11.07;;
39016;SDS011;24784;45.582;5.276;2024-01-25T06:54:26;20.33;;;11.65;;
39016;SDS011;24784;45.582;5.276;2024-01-25T06:56:52;23.20;;;12.15;;
39016;SDS011;24784;45.582;5.276;2024-01-25T06:59:18;19.88;;;12.40;;
39016;SDS011;24784;45.582;5.276;2024-01-25T07:01:43;18.88;;;11.98;;
39016;SDS011;24784;45.582;5.276;2024-01-25T07:04:09;21.48;;;11.32;;
39016;SDS011;24784;45.582;5.276;2024-01-25T07:06:34;18.40;;;12.02;;
39016;SDS011;24784;45.582;5.276;2024-01-25T07:09:00;22.83;;;12.50;;
39016;SDS011;24784;45.582;5.276;2024-01-25T07:11:26;21.45;;;12.15;;
39016;SDS011;24784;45.582;5.276;2024-01-25T07:13:51;22.25;;;11.90;;
39016;SDS011;24784;45.582;5.276;2024-01-25T07:16:17;18.55;;;11.73;;
39016;SDS011;24784;45.582;5.276;2024-01-25T07:18:44;16.70;;;11.20;;
39016;SDS011;24784;45.582;5.276;2024-01-25T07:21:10;19.27;;;11.60;;
39016;SDS011;24784;45.582;5.276;2024-01-25T07:23:36;20.27;;;11.65;;
39016;SDS011;24784;45.582;5.276;2024-01-25T07:26:01;20.85;;;11.40;;
39016;SDS011;24784;45.582;5.276;2024-01-25T07:28:27;15.57;;;10.38;;
39016;SDS011;24784;45.582;5.276;2024-01-25T07:30:53;18.13;;;10.38;;
39016;SDS011;24784;45.582;5.276;2024-01-25T07:33:18;15.98;;;10.52;;
39016;SDS011;24784;45.582;5.276;2024-01-25T07:35:44;24.55;;;11.25;;
39016;SDS011;24784;45.582;5.276;2024-01-25T07:38:13;14.02;;;9.10;;
39016;SDS011;24784;45.582;5.276;2024-01-25T07:40:41;21.25;;;11.10;;
39016;SDS011;24784;45.582;5.276;2024-01-25T07:43:07;14.88;;;9.68;;
39016;SDS011;24784;45.582;5.276;2024-01-25T07:45:33;14.75;;;9.27;;
39016;SDS011;24784;45.582;5.276;2024-01-25T07:47:59;20.40;;;9.25;;
39016;SDS011;24784;45.582;5.276;2024-01-25T07:50:24;16.20;;;9.70;;
39016;SDS011;24784;45.582;5.276;2024-01-25T07:52:50;13.40;;;8.77;;
39016;SDS011;24784;45.582;5.276;2024-01-25T07:55:16;15.55;;;9.07;;
39016;SDS011;24784;45.582;5.276;2024-01-25T07:57:41;15.10;;;9.38;;
39016;SDS011;24784;45.582;5.276;2024-01-25T08:00:07;14.82;;;8.82;;
39016;SDS011;24784;45.582;5.276;2024-01-25T08:02:34;14.88;;;8.90;;
39016;SDS011;24784;45.582;5.276;2024-01-25T08:05:00;18.05;;;8.80;;
39016;SDS011;24784;45.582;5.276;2024-01-25T08:07:26;16.75;;;8.90;;
39016;SDS011;24784;45.582;5.276;2024-01-25T08:09:53;17.13;;;9.52;;
39016;SDS011;24784;45.582;5.276;2024-01-25T08:12:22;14.90;;;9.73;;
39016;SDS011;24784;45.582;5.276;2024-01-25T08:14:47;18.13;;;9.48;;
39016;SDS011;24784;45.582;5.276;2024-01-25T08:17:13;13.82;;;8.82;;
39016;SDS011;24784;45.582;5.276;2024-01-25T08:19:39;13.95;;;8.98;;
39016;SDS011;24784;45.582;5.276;2024-01-25T08:22:04;17.15;;;10.00;;
39016;SDS011;24784;45.582;5.276;2024-01-25T08:24:31;15.73;;;10.00;;
39016;SDS011;24784;45.582;5.276;2024-01-25T08:26:56;23.33;;;10.25;;
39016;SDS011;24784;45.582;5.276;2024-01-25T08:29:22;16.83;;;10.38;;
39016;SDS011;24784;45.582;5.276;2024-01-25T08:31:48;22.15;;;11.55;;
39016;SDS011;24784;45.582;5.276;2024-01-25T08:34:13;19.58;;;11.93;;
39016;SDS011;24784;45.582;5.276;2024-01-25T08:36:39;21.75;;;11.73;;
39016;SDS011;24784;45.582;5.276;2024-01-25T08:39:05;17.10;;;10.93;;
39016;SDS011;24784;45.582;5.276;2024-01-25T08:41:33;18.92;;;11.68;;
39016;SDS011;24784;45.582;5.276;2024-01-25T08:44:00;17.90;;;10.82;;
39016;SDS011;24784;45.582;5.276;2024-01-25T08:46:25;14.80;;;9.95;;
39016;SDS011;24784;45.582;5.276;2024-01-25T08:48:51;15.70;;;10.50;;
39016;SDS011;24784;45.582;5.276;2024-01-25T08:51:17;20.27;;;11.25;;
39016;SDS011;24784;45.582;5.276;2024-01-25T08:53:43;18.77;;;11.35;;
39016;SDS011;24784;45.582;5.276;2024-01-25T08:56:08;19.10;;;12.13;;
39016;SDS011;24784;45.582;5.276;2024-01-25T08:58:34;18.13;;;10.85;;
39016;SDS011;24784;45.582;5.276;2024-01-25T09:01:00;19.02;;;10.85;;
39016;SDS011;24784;45.582;5.276;2024-01-25T09:03:26;17.77;;;10.02;;
39016;SDS011;24784;45.582;5.276;2024-01-25T09:05:52;15.90;;;8.85;;
39016;SDS011;24784;45.582;5.276;2024-01-25T09:08:17;15.27;;;8.85;;
39016;SDS011;24784;45.582;5.276;2024-01-25T09:10:43;14.57;;;8.10;;
39016;SDS011;24784;45.582;5.276;2024-01-25T09:13:09;14.93;;;7.93;;
39016;SDS011;24784;45.582;5.276;2024-01-25T09:15:35;18.92;;;8.10;;
39016;SDS011;24784;45.582;5.276;2024-01-25T09:18:01;12.32;;;7.35;;
39016;SDS011;24784;45.582;5.276;2024-01-25T09:20:27;14.13;;;7.50;;
39016;SDS011;24784;45.582;5.276;2024-01-25T09:22:52;15.38;;;7.45;;
39016;SDS011;24784;45.582;5.276;2024-01-25T09:25:21;14.75;;;7.47;;
39016;SDS011;24784;45.582;5.276;2024-01-25T09:27:47;13.98;;;7.28;;
39016;SDS011;24784;45.582;5.276;2024-01-25T09:30:13;12.05;;;7.25;;
39016;SDS011;24784;45.582;5.276;2024-01-25T09:32:39;14.98;;;7.10;;
39016;SDS011;24784;45.582;5.276;2024-01-25T09:35:05;13.35;;;7.30;;
39016;SDS011;24784;45.582;5.276;2024-01-25T09:37:31;20.60;;;7.10;;
39016;SDS011;24784;45.582;5.276;2024-01-25T09:39:56;13.00;;;6.95;;
39016;SDS011;24784;45.582;5.276;2024-01-25T09:42:23;12.23;;;6.68;;
39016;SDS011;24784;45.582;5.276;2024-01-25T09:44:49;12.00;;;6.75;;
39016;SDS011;24784;45.582;5.276;2024-01-25T09:47:17;17.08;;;6.57;;
39016;SDS011;24784;45.582;5.276;2024-01-25T09:49:45;13.00;;;7.45;;
39016;SDS011;24784;45.582;5.276;2024-01-25T09:52:11;10.98;;;6.43;;
39016;SDS011;24784;45.582;5.276;2024-01-25T09:54:38;11.93;;;7.68;;
39016;SDS011;24784;45.582;5.276;2024-01-25T09:57:27;13.18;;;7.20;;
39016;SDS011;24784;45.582;5.276;2024-01-25T09:59:52;12.82;;;7.00;;
39016;SDS011;24784;45.582;5.276;2024-01-25T10:02:20;10.30;;;6.90;;
39016;SDS011;24784;45.582;5.276;2024-01-25T10:04:49;12.02;;;6.90;;
39016;SDS011;24784;45.582;5.276;2024-01-25T10:07:37;11.43;;;6.68;;
39016;SDS011;24784;45.582;5.276;2024-01-25T10:10:10;14.32;;;8.35;;
39016;SDS011;24784;45.582;5.276;2024-01-25T10:12:38;14.63;;;7.90;;
39016;SDS011;24784;45.582;5.276;2024-01-25T10:15:05;11.75;;;6.72;;
39016;SDS011;24784;45.582;5.276;2024-01-25T10:17:31;15.48;;;7.35;;
39016;SDS011;24784;45.582;5.276;2024-01-25T10:19:57;16.45;;;7.78;;
39016;SDS011;24784;45.582;5.276;2024-01-25T10:22:22;13.35;;;6.72;;
39016;SDS011;24784;45.582;5.276;2024-01-25T10:24:48;17.48;;;6.50;;
39016;SDS011;24784;45.582;5.276;2024-01-25T10:27:18;10.35;;;6.60;;
39016;SDS011;24784;45.582;5.276;2024-01-25T10:29:44;15.02;;;7.53;;
39016;SDS011;24784;45.582;5.276;2024-01-25T10:32:10;11.00;;;6.68;;
39016;SDS011;24784;45.582;5.276;2024-01-25T10:34:36;14.00;;;7.50;;
39016;SDS011;24784;45.582;5.276;2024-01-25T10:37:03;15.52;;;7.90;;
39016;SDS011;24784;45.582;5.276;2024-01-25T10:39:31;13.40;;;6.78;;
39016;SDS011;24784;45.582;5.276;2024-01-25T10:41:58;13.55;;;6.90;;
39016;SDS011;24784;45.582;5.276;2024-01-25T10:44:25;12.80;;;6.35;;
39016;SDS011;24784;45.582;5.276;2024-01-25T10:46:50;10.13;;;6.63;;
39016;SDS011;24784;45.582;5.276;2024-01-25T10:49:17;14.07;;;6.07;;
39016;SDS011;24784;45.582;5.276;2024-01-25T10:51:43;7.90;;;4.63;;
39016;SDS011;24784;45.582;5.276;2024-01-25T10:54:13;8.70;;;4.93;;
39016;SDS011;24784;45.582;5.276;2024-01-25T10:56:46;9.90;;;5.05;;
39016;SDS011;24784;45.582;5.276;2024-01-25T10:59:15;10.23;;;5.40;;
39016;SDS011;24784;45.582;5.276;2024-01-25T11:01:43;10.48;;;4.70;;
39016;SDS011;24784;45.582;5.276;2024-01-25T11:04:13;9.02;;;4.90;;
39016;SDS011;24784;45.582;5.276;2024-01-25T11:06:42;11.93;;;4.82;;
39016;SDS011;24784;45.582;5.276;2024-01-25T11:09:19;12.55;;;4.82;;
39016;SDS011;24784;45.582;5.276;2024-01-25T11:14:13;11.77;;;4.78;;
39016;SDS011;24784;45.582;5.276;2024-01-25T11:16:39;8.95;;;4.70;;
39016;SDS011;24784;45.582;5.276;2024-01-25T11:19:15;12.02;;;4.47;;
39016;SDS011;24784;45.582;5.276;2024-01-25T11:21:46;7.90;;;4.50;;
39016;SDS011;24784;45.582;5.276;2024-01-25T11:24:16;8.93;;;4.18;;
39016;SDS011;24784;45.582;5.276;2024-01-25T11:26:45;7.13;;;3.97;;
39016;SDS011;24784;45.582;5.276;2024-01-25T11:29:17;12.88;;;4.90;;
39016;SDS011;24784;45.582;5.276;2024-01-25T11:31:46;11.00;;;4.50;;
39016;SDS011;24784;45.582;5.276;2024-01-25T11:34:12;8.30;;;4.18;;
39016;SDS011;24784;45.582;5.276;2024-01-25T11:36:40;7.60;;;4.25;;
39016;SDS011;24784;45.582;5.276;2024-01-25T11:39:08;11.23;;;4.95;;
39016;SDS011;24784;45.582;5.276;2024-01-25T11:41:35;9.23;;;4.25;;
39016;SDS011;24784;45.582;5.276;2024-01-25T11:44:01;5.38;;;4.55;;
39016;SDS011;24784;45.582;5.276;2024-01-25T11:46:27;7.40;;;3.95;;
39016;SDS011;24784;45.582;5.276;2024-01-25T11:48:53;7.50;;;3.10;;
39016;SDS011;24784;45.582;5.276;2024-01-25T11:51:19;8.27;;;2.90;;
39016;SDS011;24784;45.582;5.276;2024-01-25T11:53:44;6.80;;;2.50;;
39016;SDS011;24784;45.582;5.276;2024-01-25T11:56:10;5.10;;;2.50;;
39016;SDS011;24784;45.582;5.276;2024-01-25T11:58:41;7.97;;;2.65;;
39016;SDS011;24784;45.582;5.276;2024-01-25T12:01:08;8.23;;;2.72;;
39016;SDS011;24784;45.582;5.276;2024-01-25T12:03:34;3.58;;;1.60;;
39016;SDS011;24784;45.582;5.276;2024-01-25T12:06:04;4.10;;;2.00;;
39016;SDS011;24784;45.582;5.276;2024-01-25T12:08:31;2.17;;;1.50;;
39016;SDS011;24784;45.582;5.276;2024-01-25T12:11:08;7.78;;;2.45;;
39016;SDS011;24784;45.582;5.276;2024-01-25T12:13:35;4.22;;;1.90;;
39016;SDS011;24784;45.582;5.276;2024-01-25T12:16:03;4.28;;;2.10;;
39016;SDS011;24784;45.582;5.276;2024-01-25T12:18:29;10.13;;;2.03;;
39016;SDS011;24784;45.582;5.276;2024-01-25T12:20:57;3.72;;;2.00;;
39016;SDS011;24784;45.582;5.276;2024-01-25T12:23:29;6.03;;;2.22;;
39016;SDS011;24784;45.582;5.276;2024-01-25T12:26:00;5.50;;;2.45;;
39016;SDS011;24784;45.582;5.276;2024-01-25T12:28:29;4.50;;;2.40;;
39016;SDS011;24784;45.582;5.276;2024-01-25T12:30:56;9.20;;;2.20;;
39016;SDS011;24784;45.582;5.276;2024-01-25T12:33:22;7.10;;;2.47;;
39016;SDS011;24784;45.582;5.276;2024-01-25T12:35:48;8.00;;;2.67;;
39016;SDS011;24784;45.582;5.276;2024-01-25T12:38:13;5.47;;;2.72;;
39016;SDS011;24784;45.582;5.276;2024-01-25T12:40:41;7.30;;;2.45;;
39016;SDS011;24784;45.582;5.276;2024-01-25T12:43:08;2.95;;;2.20;;
39016;SDS011;24784;45.582;5.276;2024-01-25T12:45:34;5.55;;;2.63;;
39016;SDS011;24784;45.582;5.276;2024-01-25T12:47:59;8.23;;;2.45;;
39016;SDS011;24784;45.582;5.276;2024-01-25T12:50:25;5.75;;;2.60;;
39016;SDS011;24784;45.582;5.276;2024-01-25T12:52:50;11.30;;;2.95;;
39016;SDS011;24784;45.582;5.276;2024-01-25T12:55:16;5.95;;;3.05;;
39016;SDS011;24784;45.582;5.276;2024-01-25T12:57:42;6.63;;;2.90;;
39016;SDS011;24784;45.582;5.276;2024-01-25T13:00:07;6.32;;;2.67;;
39016;SDS011;24784;45.582;5.276;2024-01-25T13:02:33;5.70;;;2.85;;
39016;SDS011;24784;45.582;5.276;2024-01-25T13:04:59;8.07;;;3.15;;
39016;SDS011;24784;45.582;5.276;2024-01-25T13:07:25;6.65;;;2.85;;
39016;SDS011;24784;45.582;5.276;2024-01-25T13:09:50;6.25;;;2.95;;
39016;SDS011;24784;45.582;5.276;2024-01-25T13:12:16;4.75;;;2.45;;
39016;SDS011;24784;45.582;5.276;2024-01-25T13:14:41;7.53;;;2.90;;
39016;SDS011;24784;45.582;5.276;2024-01-25T13:17:07;5.15;;;2.63;;
39016;SDS011;24784;45.582;5.276;2024-01-25T13:19:33;5.50;;;3.22;;
39016;SDS011;24784;45.582;5.276;2024-01-25T13:21:59;6.85;;;2.70;;
39016;SDS011;24784;45.582;5.276;2024-01-25T13:24:25;4.63;;;2.60;;
39016;SDS011;24784;45.582;5.276;2024-01-25T13:26:50;6.93;;;2.67;;
39016;SDS011;24784;45.582;5.276;2024-01-25T13:29:16;9.10;;;2.40;;
39016;SDS011;24784;45.582;5.276;2024-01-25T13:31:41;3.75;;;2.40;;
39016;SDS011;24784;45.582;5.276;2024-01-25T13:34:07;8.18;;;4.32;;
39016;SDS011;24784;45.582;5.276;2024-01-25T13:36:33;3.42;;;1.70;;
39016;SDS011;24784;45.582;5.276;2024-01-25T13:38:58;3.70;;;1.27;;
39016;SDS011;24784;45.582;5.276;2024-01-25T13:41:24;3.08;;;1.27;;
39016;SDS011;24784;45.582;5.276;2024-01-25T13:43:51;6.43;;;1.67;;
39016;SDS011;24784;45.582;5.276;2024-01-25T13:46:16;3.72;;;1.40;;
39016;SDS011;24784;45.582;5.276;2024-01-25T13:48:42;2.10;;;1.20;;
39016;SDS011;24784;45.582;5.276;2024-01-25T13:51:07;2.63;;;1.23;;
39016;SDS011;24784;45.582;5.276;2024-01-25T13:53:33;2.03;;;1.40;;
39016;SDS011;24784;45.582;5.276;2024-01-25T13:55:59;6.93;;;1.45;;
39016;SDS011;24784;45.582;5.276;2024-01-25T13:58:25;2.30;;;1.17;;
39016;SDS011;24784;45.582;5.276;2024-01-25T14:00:50;3.35;;;1.38;;
39016;SDS011;24784;45.582;5.276;2024-01-25T14:03:16;4.13;;;1.50;;
39016;SDS011;24784;45.582;5.276;2024-01-25T14:05:42;3.05;;;1.60;;
39016;SDS011;24784;45.582;5.276;2024-01-25T14:08:08;2.35;;;1.30;;
39016;SDS011;24784;45.582;5.276;2024-01-25T14:10:33;3.67;;;1.23;;
39016;SDS011;24784;45.582;5.276;2024-01-25T14:12:59;4.70;;;1.48;;
39016;SDS011;24784;45.582;5.276;2024-01-25T14:15:25;4.88;;;1.30;;
39016;SDS011;24784;45.582;5.276;2024-01-25T14:17:51;3.75;;;1.67;;
39016;SDS011;24784;45.582;5.276;2024-01-25T14:20:17;1.88;;;1.40;;
39016;SDS011;24784;45.582;5.276;2024-01-25T14:22:43;2.80;;;1.30;;
39016;SDS011;24784;45.582;5.276;2024-01-25T14:25:09;2.70;;;1.30;;
39016;SDS011;24784;45.582;5.276;2024-01-25T14:27:34;1.92;;;1.30;;
39016;SDS011;24784;45.582;5.276;2024-01-25T14:30:01;2.00;;;1.58;;
39016;SDS011;24784;45.582;5.276;2024-01-25T14:32:28;2.45;;;1.70;;
39016;SDS011;24784;45.582;5.276;2024-01-25T14:34:54;7.55;;;1.65;;